createdAt,value
2018-04-15T00:00:38.999Z,14.57
2018-04-15T00:03:07.887Z,16.20
2018-04-15T00:05:36.965Z,15.98
2018-04-15T00:08:05.856Z,11.15
2018-04-15T00:10:35.079Z,16.83
2018-04-15T00:13:03.991Z,19.92
2018-04-15T00:15:32.875Z,20.58
2018-04-15T00:18:01.962Z,18.05
2018-04-15T00:20:30.870Z,19.12
2018-04-15T00:22:59.759Z,13.32
2018-04-15T00:25:28.649Z,13.88
2018-04-15T00:27:57.547Z,20.05
2018-04-15T00:30:26.623Z,16.67
2018-04-15T00:32:55.511Z,11.73
2018-04-15T00:35:24.400Z,14.75
2018-04-15T00:37:53.499Z,18.35
2018-04-15T00:40:22.386Z,21.83
2018-04-15T00:42:51.494Z,14.40
2018-04-15T00:45:20.579Z,15.95
2018-04-15T00:47:49.473Z,14.50
2018-04-15T00:50:18.375Z,14.98
2018-04-15T00:52:47.470Z,25.83
2018-04-15T00:55:16.368Z,31.25
2018-04-15T00:57:45.263Z,14.32
2018-04-15T01:00:14.382Z,14.30
2018-04-15T01:02:43.271Z,18.60
2018-04-15T01:05:12.159Z,18.17
2018-04-15T01:07:41.291Z,27.80
2018-04-15T01:10:10.183Z,20.12
2018-04-15T01:12:39.075Z,14.52
2018-04-15T01:15:07.967Z,22.90
2018-04-15T01:17:36.855Z,34.03
2018-04-15T01:20:05.924Z,14.45
2018-04-15T01:22:34.815Z,15.23
2018-04-15T01:25:03.714Z,14.73
2018-04-15T01:27:32.602Z,49.33
2018-04-15T01:30:01.493Z,13.20
2018-04-15T01:32:30.567Z,11.27
2018-04-15T01:34:59.458Z,10.82
2018-04-15T01:37:28.350Z,13.00
2018-04-15T01:39:57.428Z,19.65
2018-04-15T01:42:26.325Z,16.02
2018-04-15T01:44:55.218Z,16.35
2018-04-15T01:47:24.111Z,11.88
2018-04-15T01:49:52.998Z,17.27
2018-04-15T01:52:22.015Z,11.73
2018-04-15T01:54:50.898Z,13.02
2018-04-15T01:57:19.818Z,29.73
2018-04-15T01:59:48.709Z,27.75
2018-04-15T02:02:17.600Z,12.75
2018-04-15T02:04:46.559Z,16.85
2018-04-15T02:07:15.442Z,20.02
2018-04-15T02:09:44.334Z,10.38
2018-04-15T02:12:13.223Z,12.25
2018-04-15T02:14:42.118Z,20.83
2018-04-15T02:17:11.179Z,25.20
2018-04-15T02:19:40.063Z,23.50
2018-04-15T02:22:08.952Z,22.17
2018-04-15T02:24:37.915Z,12.75
2018-04-15T02:27:06.819Z,23.80
2018-04-15T02:29:35.708Z,23.77
2018-04-15T02:32:04.626Z,20.37
2018-04-15T02:34:33.528Z,16.85
2018-04-15T02:37:02.415Z,16.75
2018-04-15T02:39:31.496Z,14.40
2018-04-15T02:42:00.420Z,16.02
2018-04-15T02:44:29.314Z,18.62
2018-04-15T02:46:58.203Z,15.65
2018-04-15T02:49:27.090Z,23.45
2018-04-15T02:51:55.999Z,11.85
2018-04-15T02:54:24.893Z,22.50
2018-04-15T02:56:53.782Z,49.25
2018-04-15T02:59:22.924Z,13.85
2018-04-15T03:01:51.819Z,13.57
2018-04-15T03:04:20.918Z,12.65
2018-04-15T03:06:49.999Z,12.30
2018-04-15T03:09:18.894Z,22.45
2018-04-15T03:11:47.843Z,21.40
2018-04-15T03:14:16.730Z,14.52
2018-04-15T03:16:45.627Z,22.92
2018-04-15T03:19:14.875Z,24.80
2018-04-15T03:21:43.775Z,14.10
2018-04-15T03:24:12.670Z,17.10
2018-04-15T03:26:41.583Z,18.52
2018-04-15T03:29:10.477Z,11.32
2018-04-15T03:31:39.369Z,21.25
2018-04-15T03:34:08.263Z,16.90
2018-04-15T03:36:37.160Z,14.23
2018-04-15T03:39:06.274Z,15.70
2018-04-15T03:41:35.369Z,25.73
2018-04-15T03:44:04.260Z,13.23
2018-04-15T03:46:33.195Z,25.30
2018-04-15T03:49:02.175Z,16.90
2018-04-15T03:51:31.070Z,16.85
2018-04-15T03:53:59.962Z,19.62
2018-04-15T03:56:28.847Z,24.12
2018-04-15T03:58:57.740Z,19.27
2018-04-15T04:01:26.627Z,11.70
2018-04-15T04:03:55.518Z,16.15
2018-04-15T04:06:24.443Z,17.20
2018-04-15T04:08:53.357Z,48.92
2018-04-15T04:11:22.246Z,40.95
2018-04-15T04:13:51.210Z,39.63
2018-04-15T04:16:20.102Z,47.10
2018-04-15T04:19:06.516Z,29.75
2018-04-15T04:21:41.246Z,36.90
2018-04-15T04:24:15.934Z,17.27
2018-04-15T04:26:44.827Z,21.87
2018-04-15T04:29:13.927Z,27.42
2018-04-15T04:31:42.830Z,12.52
2018-04-15T04:34:11.722Z,29.58
2018-04-15T04:36:40.617Z,13.13
2018-04-15T04:39:09.511Z,12.27
2018-04-15T04:41:38.425Z,15.93
2018-04-15T04:44:07.307Z,14.93
2018-04-15T04:46:36.199Z,26.35
2018-04-15T04:49:05.244Z,15.57
2018-04-15T04:51:34.139Z,20.92
2018-04-15T04:54:03.026Z,27.35
2018-04-15T04:56:32.163Z,13.98
2018-04-15T04:59:01.052Z,21.52
2018-04-15T05:01:29.972Z,15.02
2018-04-15T05:03:58.870Z,21.40
2018-04-15T05:06:27.763Z,24.58
2018-04-15T05:08:56.982Z,14.82
2018-04-15T05:11:25.887Z,26.10
2018-04-15T05:13:54.832Z,10.63
2018-04-15T05:16:23.720Z,20.08
2018-04-15T05:18:52.606Z,16.60
2018-04-15T05:21:21.640Z,14.13
2018-04-15T05:23:50.719Z,13.50
2018-04-15T05:26:19.603Z,21.23
2018-04-15T05:28:48.499Z,17.55
2018-04-15T05:31:17.382Z,38.78
2018-04-15T05:33:46.502Z,12.75
2018-04-15T05:36:15.391Z,31.90
2018-04-15T05:38:44.293Z,12.88
2018-04-15T05:41:13.796Z,13.50
2018-04-15T05:43:42.688Z,16.75
2018-04-15T05:46:11.575Z,21.12
2018-04-15T05:48:40.519Z,13.52
2018-04-15T05:51:09.411Z,18.33
2018-04-15T05:53:38.311Z,24.77
2018-04-15T05:56:07.251Z,21.58
2018-04-15T05:58:36.138Z,14.77
2018-04-15T06:01:05.027Z,15.45
2018-04-15T06:03:33.919Z,25.65
2018-04-15T06:06:02.816Z,20.65
2018-04-15T06:08:32.107Z,32.00
2018-04-15T06:11:00.999Z,20.40
2018-04-15T06:13:29.908Z,18.08
2018-04-15T06:15:58.846Z,19.55
2018-04-15T06:18:27.833Z,18.87
2018-04-15T06:20:56.722Z,10.80
2018-04-15T06:23:25.751Z,33.58
2018-04-15T06:25:54.643Z,12.65
2018-04-15T06:28:23.538Z,21.70
2018-04-15T06:30:52.647Z,19.60
2018-04-15T06:33:21.539Z,15.98
2018-04-15T06:35:50.439Z,18.75
2018-04-15T06:38:19.383Z,25.90
2018-04-15T06:40:48.283Z,29.52
2018-04-15T06:43:17.180Z,18.02
2018-04-15T06:45:46.158Z,24.83
2018-04-15T06:48:15.071Z,18.75
2018-04-15T06:50:43.959Z,12.90
2018-04-15T06:53:12.851Z,17.20
2018-04-15T06:55:41.786Z,22.73
2018-04-15T06:58:10.712Z,30.27
2018-04-15T07:00:39.603Z,15.98
2018-04-15T07:03:08.487Z,16.37
2018-04-15T07:05:37.377Z,14.65
2018-04-15T07:08:06.267Z,17.77
2018-04-15T07:10:35.186Z,31.58
2018-04-15T07:13:04.130Z,18.95
2018-04-15T07:15:33.025Z,20.90
2018-04-15T07:18:01.978Z,22.00
2018-04-15T07:20:30.921Z,13.75
2018-04-15T07:22:59.810Z,14.87
2018-04-15T07:25:29.043Z,11.95
2018-04-15T07:27:57.936Z,11.50
2018-04-15T07:30:26.865Z,24.52
2018-04-15T07:32:55.811Z,20.17
2018-04-15T07:35:24.713Z,21.40
2018-04-15T07:37:53.599Z,13.90
2018-04-15T07:40:22.795Z,12.25
2018-04-15T07:42:51.691Z,16.92
2018-04-15T07:45:20.587Z,19.37
2018-04-15T07:47:49.479Z,14.68
2018-04-15T07:50:18.375Z,20.40
2018-04-15T07:52:47.655Z,16.30
2018-04-15T07:55:16.546Z,14.23
2018-04-15T07:57:45.442Z,16.45
2018-04-15T08:00:14.734Z,16.25
2018-04-15T08:02:43.626Z,13.62
2018-04-15T08:05:12.519Z,18.05
2018-04-15T08:07:41.687Z,13.82
2018-04-15T08:10:10.576Z,25.05
2018-04-15T08:12:39.464Z,13.95
2018-04-15T08:15:08.359Z,14.90
2018-04-15T08:17:37.246Z,15.48
2018-04-15T08:20:06.199Z,48.63
2018-04-15T08:22:35.100Z,24.85
2018-04-15T08:25:04.043Z,25.65
2018-04-15T08:27:33.171Z,17.83
2018-04-15T08:30:02.068Z,14.38
2018-04-15T08:32:30.967Z,25.58
2018-04-15T08:34:59.860Z,13.45
2018-04-15T08:37:28.754Z,39.88
2018-04-15T08:39:57.698Z,23.17
2018-04-15T08:42:26.593Z,18.30
2018-04-15T08:44:55.490Z,20.67
2018-04-15T08:47:24.387Z,30.45
2018-04-15T08:49:53.278Z,19.70
2018-04-15T08:52:22.462Z,15.68
2018-04-15T08:54:51.373Z,19.98
2018-04-15T08:57:20.332Z,24.90
2018-04-15T08:59:49.290Z,19.37
2018-04-15T09:02:18.179Z,24.60
2018-04-15T09:04:47.079Z,18.12
2018-04-15T09:07:15.975Z,19.15
2018-04-15T09:09:44.907Z,23.10
2018-04-15T09:12:13.999Z,17.77
2018-04-15T09:14:42.891Z,13.07
2018-04-15T09:17:11.799Z,16.62
2018-04-15T09:19:40.826Z,18.00
2018-04-15T09:22:09.718Z,21.12
2018-04-15T09:24:38.623Z,23.48
2018-04-15T09:27:07.520Z,22.13
2018-04-15T09:29:36.418Z,25.85
2018-04-15T09:32:05.540Z,30.12
2018-04-15T09:34:34.438Z,37.05
2018-04-15T09:37:03.333Z,23.50
2018-04-15T09:39:32.225Z,18.23
2018-04-15T09:42:01.147Z,17.52
2018-04-15T09:44:30.180Z,21.58
2018-04-15T09:46:59.092Z,24.55
2018-04-15T09:49:28.005Z,20.88
2018-04-15T09:51:56.910Z,22.42
2018-04-15T09:54:25.942Z,29.48
2018-04-15T09:56:55.259Z,25.35
2018-04-15T09:59:24.155Z,23.70
2018-04-15T10:01:53.055Z,17.27
2018-04-15T10:04:21.951Z,24.58
2018-04-15T10:06:51.033Z,23.85
2018-04-15T10:09:20.122Z,24.48
2018-04-15T10:11:49.030Z,20.33
2018-04-15T10:14:17.923Z,35.35
2018-04-15T10:16:47.208Z,22.67
2018-04-15T10:19:16.106Z,24.73
2018-04-15T10:21:44.999Z,17.77
2018-04-15T10:24:13.936Z,22.85
2018-04-15T10:26:42.814Z,21.23
2018-04-15T10:29:11.871Z,18.58
2018-04-15T10:31:40.764Z,18.62
2018-04-15T10:34:09.657Z,31.80
2018-04-15T10:36:38.830Z,24.55
2018-04-15T10:39:07.721Z,20.60
2018-04-15T10:41:36.614Z,19.92
2018-04-15T10:44:05.642Z,22.42
2018-04-15T10:46:34.531Z,25.83
2018-04-15T10:49:03.452Z,22.65
2018-04-15T10:51:32.357Z,19.87
2018-04-15T10:54:01.252Z,22.85
2018-04-15T10:56:30.213Z,20.67
2018-04-15T10:58:59.115Z,24.50
2018-04-15T11:01:28.006Z,18.80
2018-04-15T11:03:57.000Z,20.65
2018-04-15T11:06:25.911Z,21.35
2018-04-15T11:08:54.798Z,20.37
2018-04-15T11:11:23.691Z,21.50
2018-04-15T11:13:52.622Z,26.60
2018-04-15T11:16:21.515Z,22.85
2018-04-15T11:18:50.422Z,20.85
2018-04-15T11:21:19.318Z,19.08
2018-04-15T11:23:48.221Z,22.90
2018-04-15T11:26:17.111Z,22.05
2018-04-15T11:28:46.069Z,21.05
2018-04-15T11:31:14.963Z,24.63
2018-04-15T11:33:43.857Z,23.60
2018-04-15T11:36:12.806Z,27.33
2018-04-15T11:38:41.695Z,29.95
2018-04-15T11:41:10.763Z,19.85
2018-04-15T11:43:39.728Z,26.67
2018-04-15T11:46:09.543Z,30.12
2018-04-15T11:48:38.447Z,30.55
2018-04-15T11:51:07.348Z,23.12
2018-04-15T11:53:36.407Z,24.73
2018-04-15T11:56:05.307Z,20.15
2018-04-15T11:58:34.223Z,26.23
2018-04-15T12:01:03.125Z,18.98
2018-04-15T12:03:32.022Z,19.55
2018-04-15T12:06:00.963Z,22.52
2018-04-15T12:08:29.947Z,24.63
2018-04-15T12:10:58.846Z,23.05
2018-04-15T12:13:27.915Z,20.85
2018-04-15T12:15:56.808Z,20.37
2018-04-15T12:18:25.927Z,20.52
2018-04-15T12:20:54.821Z,14.32
2018-04-15T12:23:23.712Z,24.15
2018-04-15T12:25:52.610Z,17.17
2018-04-15T12:28:21.506Z,13.98
2018-04-15T12:30:50.430Z,18.05
2018-04-15T12:33:19.320Z,18.77
2018-04-15T12:35:48.361Z,16.87
2018-04-15T12:38:17.319Z,17.52
2018-04-15T12:40:46.210Z,19.27
2018-04-15T12:43:15.107Z,22.00
2018-04-15T12:45:44.023Z,20.67
2018-04-15T12:48:12.915Z,17.87
2018-04-15T12:50:41.802Z,9.68
2018-04-15T12:53:10.751Z,20.52
2018-04-15T12:55:39.653Z,29.05
2018-04-15T12:58:08.767Z,14.75
2018-04-15T13:00:37.658Z,15.27
2018-04-15T13:03:06.566Z,23.85
2018-04-15T13:05:35.599Z,21.20
2018-04-15T13:08:04.498Z,23.38
2018-04-15T13:10:33.406Z,20.02
2018-04-15T13:13:02.296Z,12.73
2018-04-15T13:15:31.183Z,15.15
2018-04-15T13:18:00.322Z,16.35
2018-04-15T13:20:29.207Z,9.75
2018-04-15T13:22:58.112Z,13.55
2018-04-15T13:25:27.003Z,16.27
2018-04-15T13:27:55.894Z,13.43
2018-04-15T13:30:24.954Z,8.88
2018-04-15T13:32:53.905Z,14.75
2018-04-15T13:35:22.811Z,12.80
2018-04-15T13:37:51.699Z,9.90
2018-04-15T13:40:20.609Z,7.68
2018-04-15T13:42:49.552Z,8.13
2018-04-15T13:45:18.531Z,6.87
2018-04-15T13:47:47.419Z,8.80
2018-04-15T13:50:16.317Z,5.60
2018-04-15T13:52:45.211Z,6.35
2018-04-15T13:55:14.324Z,5.78
2018-04-15T13:57:43.215Z,4.35
2018-04-15T14:00:12.113Z,4.65
2018-04-15T14:02:41.049Z,4.80
2018-04-15T14:05:09.937Z,8.90
2018-04-15T14:07:38.961Z,4.60
2018-04-15T14:10:07.846Z,5.15
2018-04-15T14:12:36.735Z,5.78
2018-04-15T14:15:05.645Z,6.75
2018-04-15T14:17:34.535Z,7.68
2018-04-15T14:20:03.587Z,30.33
2018-04-15T14:22:32.502Z,7.53
2018-04-15T14:25:01.387Z,8.75
2018-04-15T14:27:30.486Z,8.20
2018-04-15T14:29:59.379Z,15.85
2018-04-15T14:32:28.479Z,7.95
2018-04-15T14:34:57.363Z,6.90
2018-04-15T14:37:26.255Z,5.90
2018-04-15T14:39:55.175Z,7.25
2018-04-15T14:42:24.063Z,6.68
2018-04-15T14:44:53.107Z,9.02
2018-04-15T14:47:21.986Z,5.95
2018-04-15T14:49:50.886Z,6.07
2018-04-15T14:52:22.060Z,6.95
2018-04-15T14:54:50.946Z,7.10
2018-04-15T14:57:20.043Z,3.72
2018-04-15T14:59:48.927Z,4.75
2018-04-15T15:02:17.818Z,12.48
2018-04-15T15:04:46.878Z,3.70
2018-04-15T15:07:15.759Z,4.68
2018-04-15T15:09:44.885Z,5.15
2018-04-15T15:12:13.828Z,5.30
2018-04-15T15:14:42.720Z,3.70
2018-04-15T15:17:11.609Z,3.65
2018-04-15T15:19:40.568Z,4.30
2018-04-15T15:22:09.543Z,4.57
2018-04-15T15:24:38.426Z,4.43
2018-04-15T15:27:07.371Z,8.55
2018-04-15T15:29:36.255Z,5.70
2018-04-15T15:32:05.148Z,4.80
2018-04-15T15:34:34.199Z,4.53
2018-04-15T15:37:03.102Z,7.50
2018-04-15T15:39:32.035Z,8.73
2018-04-15T15:42:00.923Z,4.85
2018-04-15T15:44:29.806Z,4.82
2018-04-15T15:46:58.693Z,16.10
2018-04-15T15:49:27.603Z,7.40
2018-04-15T15:51:56.859Z,6.62
2018-04-15T15:54:25.748Z,8.77
2018-04-15T15:56:54.651Z,5.72
2018-04-15T15:59:23.543Z,7.90
2018-04-15T16:01:52.462Z,4.28
2018-04-15T16:04:21.360Z,3.72
2018-04-15T16:06:50.260Z,5.07
2018-04-15T16:09:19.168Z,7.18
2018-04-15T16:11:48.055Z,4.15
2018-04-15T16:14:16.996Z,13.20
2018-04-15T16:16:45.882Z,5.80
2018-04-15T16:19:14.767Z,6.32
2018-04-15T16:21:43.981Z,4.12
2018-04-15T16:24:12.874Z,7.18
2018-04-15T16:26:41.759Z,5.40
2018-04-15T16:29:10.657Z,6.45
2018-04-15T16:31:39.548Z,7.65
2018-04-15T16:34:08.615Z,6.43
2018-04-15T16:36:37.510Z,5.62
2018-04-15T16:39:06.410Z,5.93
2018-04-15T16:41:35.359Z,11.82
2018-04-15T16:44:04.265Z,6.78
2018-04-15T16:46:33.152Z,7.00
2018-04-15T16:49:02.039Z,7.80
2018-04-15T16:51:30.929Z,4.57
2018-04-15T16:53:59.904Z,5.00
2018-04-15T16:56:28.787Z,7.60
2018-04-15T16:58:57.795Z,6.45
2018-04-15T17:01:26.717Z,6.82
2018-04-15T17:03:55.612Z,6.87
2018-04-15T17:06:24.506Z,7.68
2018-04-15T17:08:53.399Z,8.32
2018-04-15T17:11:22.327Z,5.68
2018-04-15T17:13:51.352Z,6.53
2018-04-15T17:16:20.378Z,7.80
2018-04-15T17:18:49.331Z,5.90
2018-04-15T17:21:18.318Z,7.65
2018-04-15T17:23:47.225Z,9.23
2018-04-15T17:26:16.117Z,5.72
2018-04-15T17:28:45.215Z,7.82
2018-04-15T17:31:14.131Z,6.50
2018-04-15T17:33:43.067Z,9.35
2018-04-15T17:36:11.964Z,10.57
2018-04-15T17:38:40.872Z,7.68
2018-04-15T17:41:09.811Z,7.90
2018-04-15T17:43:38.735Z,8.60
2018-04-15T17:46:07.669Z,6.10
2018-04-15T17:48:36.568Z,10.25
2018-04-15T17:51:05.639Z,8.57
2018-04-15T17:53:34.960Z,8.98
2018-04-15T17:56:03.855Z,11.30
2018-04-15T17:58:32.747Z,10.32
2018-04-15T18:01:01.711Z,14.63
2018-04-15T18:03:30.799Z,11.27
2018-04-15T18:05:59.840Z,11.30
2018-04-15T18:08:28.771Z,12.02
2018-04-15T18:10:57.744Z,12.52
2018-04-15T18:13:27.147Z,18.27
2018-04-15T18:15:56.723Z,9.52
2018-04-15T18:18:25.655Z,12.25
2018-04-15T18:20:54.873Z,18.02
2018-04-15T18:23:23.764Z,16.85
2018-04-15T18:25:52.791Z,14.07
2018-04-15T18:28:21.894Z,15.50
2018-04-15T18:30:50.919Z,16.17
2018-04-15T18:33:19.941Z,15.15
2018-04-15T18:35:48.895Z,17.77
2018-04-15T18:38:17.803Z,32.03
2018-04-15T18:40:46.703Z,22.50
2018-04-15T18:43:15.847Z,16.55
2018-04-15T18:45:44.743Z,20.02
2018-04-15T18:48:13.648Z,15.65
2018-04-15T18:50:42.555Z,23.33
2018-04-15T18:53:11.451Z,18.75
2018-04-15T18:55:40.395Z,19.62
2018-04-15T18:58:09.290Z,19.27
2018-04-15T19:00:38.183Z,21.45
2018-04-15T19:03:07.183Z,15.80
2018-04-15T19:05:36.079Z,20.17
2018-04-15T19:08:05.008Z,17.70
2018-04-15T19:10:33.922Z,20.98
2018-04-15T19:13:03.220Z,18.00
2018-04-15T19:15:32.123Z,15.43
2018-04-15T19:18:01.008Z,18.60
2018-04-15T19:20:30.135Z,11.82
2018-04-15T19:22:59.031Z,17.62
2018-04-15T19:25:28.915Z,14.45
2018-04-15T19:27:57.802Z,13.55
2018-04-15T19:30:26.807Z,19.48
2018-04-15T19:32:55.735Z,19.33
2018-04-15T19:35:24.635Z,20.45
2018-04-15T19:37:53.743Z,17.65
2018-04-15T19:40:22.660Z,13.93
2018-04-15T19:42:51.542Z,14.98
2018-04-15T19:45:20.752Z,14.18
2018-04-15T19:47:49.658Z,19.50
2018-04-15T19:50:19.394Z,16.08
2018-04-15T19:52:48.280Z,24.90
2018-04-15T19:55:17.235Z,16.85
2018-04-15T19:57:46.127Z,16.90
2018-04-15T20:00:15.018Z,19.42
2018-04-15T20:02:44.043Z,16.50
2018-04-15T20:05:12.952Z,15.82
2018-04-15T20:07:41.923Z,20.55
2018-04-15T20:10:10.822Z,18.87
2018-04-15T20:12:39.810Z,22.15
2018-04-15T20:15:08.726Z,18.05
2018-04-15T20:17:37.631Z,18.40
2018-04-15T20:20:06.551Z,20.00
2018-04-15T20:22:35.459Z,24.50
2018-04-15T20:25:04.471Z,21.73
2018-04-15T20:27:33.397Z,18.40
2018-04-15T20:30:02.283Z,15.63
2018-04-15T20:32:31.538Z,17.23
2018-04-15T20:35:00.443Z,22.35
2018-04-15T20:37:29.343Z,16.05
2018-04-15T20:39:58.423Z,22.15
2018-04-15T20:42:27.335Z,14.50
2018-04-15T20:44:56.231Z,16.85
2018-04-15T20:47:25.559Z,17.37
2018-04-15T20:49:54.454Z,16.12
2018-04-15T20:52:23.350Z,17.85
2018-04-15T20:54:52.247Z,14.63
2018-04-15T20:57:21.139Z,18.52
2018-04-15T20:59:50.083Z,19.50
2018-04-15T21:02:18.991Z,15.90
2018-04-15T21:04:47.892Z,15.77
2018-04-15T21:07:16.834Z,15.93
2018-04-15T21:09:45.745Z,21.70
2018-04-15T21:12:14.691Z,15.57
2018-04-15T21:14:43.598Z,21.60
2018-04-15T21:17:12.599Z,21.85
2018-04-15T21:19:41.487Z,15.05
2018-04-15T21:22:10.378Z,16.40
2018-04-15T21:24:39.447Z,18.33
2018-04-15T21:27:08.331Z,20.37
2018-04-15T21:29:37.227Z,18.02
2018-04-15T21:32:06.115Z,16.80
2018-04-15T21:34:35.012Z,16.87
2018-04-15T21:37:04.143Z,21.87
2018-04-15T21:39:33.048Z,16.10
2018-04-15T21:42:01.940Z,15.43
2018-04-15T21:44:30.831Z,17.75
2018-04-15T21:46:59.727Z,20.92
2018-04-15T21:49:28.847Z,24.02
2018-04-15T21:51:57.739Z,19.87
2018-04-15T21:54:27.049Z,16.67
2018-04-15T21:56:55.992Z,21.73
2018-04-15T21:59:24.900Z,28.92
2018-04-15T22:01:53.799Z,30.85
2018-04-15T22:04:22.717Z,31.27
2018-04-15T22:06:51.607Z,25.58
2018-04-15T22:09:20.598Z,33.20
2018-04-15T22:11:55.363Z,28.55
2018-04-15T22:14:24.262Z,40.00
2018-04-15T22:16:53.379Z,37.53
2018-04-15T22:19:22.271Z,33.55
2018-04-15T22:21:51.166Z,39.78
2018-04-15T22:24:20.069Z,31.12
2018-04-15T22:26:48.963Z,30.55
2018-04-15T22:29:17.912Z,36.72
2018-04-15T22:31:46.798Z,34.03
2018-04-15T22:34:15.730Z,28.73
2018-04-15T22:36:44.629Z,32.45
2018-04-15T22:39:13.568Z,32.47
2018-04-15T22:41:42.667Z,33.25
2018-04-15T22:44:11.560Z,36.47
2018-04-15T22:46:40.457Z,29.55
2018-04-15T22:49:15.046Z,36.22
2018-04-15T22:51:44.027Z,30.80
2018-04-15T22:54:12.955Z,40.30
2018-04-15T22:56:43.821Z,38.83
2018-04-15T22:59:12.749Z,46.95
2018-04-15T23:01:41.655Z,37.05
2018-04-15T23:04:11.250Z,41.70
2018-04-15T23:06:40.197Z,35.70
2018-04-15T23:09:09.274Z,41.97
2018-04-15T23:11:38.176Z,43.13
2018-04-15T23:14:07.090Z,43.05
2018-04-15T23:16:36.004Z,49.42
2018-04-15T23:19:05.032Z,39.08
2018-04-15T23:21:33.941Z,44.40
2018-04-15T23:24:02.861Z,38.95
2018-04-15T23:26:31.775Z,39.00
2018-04-15T23:29:00.677Z,52.75
2018-04-15T23:31:29.909Z,46.00
2018-04-15T23:33:58.821Z,47.08
2018-04-15T23:36:27.744Z,54.65
2018-04-15T23:38:56.700Z,69.12
2018-04-15T23:41:25.611Z,39.78
2018-04-15T23:43:54.622Z,51.08
2018-04-15T23:46:23.601Z,43.75
2018-04-15T23:48:52.513Z,44.70
2018-04-15T23:51:21.499Z,42.17
2018-04-15T23:53:50.407Z,46.83
2018-04-15T23:56:19.317Z,39.90
2018-04-15T23:58:48.386Z,45.80
